메인 페이지
METAR-TAF:

METAR-TAF

공항 :

그와다르, 파키스탄

위도: 25-13-59N, 경도: 062-19-46E, 고도: 29m

METAR: 누락

시각: 09:59 (04:59 UTC)

예보

예보는 7 시간 29분 전, 21:30시(UTC)에 발표되었습니다.
예보 대상 시간: 16일 00시부터 16일 24시까지 (UTC)
남서5kt, 순간 최대 풍속 15kt
시정: 4000m
연무
일시적
16일 00시부터 16일 04시까지 (UTC)
kt
시정: 1000m
고도 2000ft 상공 구름 많음
안개
16일 1800시부터 (UTC)
여러 방향의 바람 3kt
시정: 2000m
고도 2000ft 상공 구름 많음
연기

TAF: OPGD 152130Z 1600/1624 23005G15KT 4000 HZ NSC TEMPO 1600/1604 00000KT 1000 FG BKN020 FM161800 VRB03KT 2000 FU BKN020

4,000개 이상의 공항 관측 자료 및 예보 (METAR 및 TAF 보고).

지도상에서 검색 가능한 기상관측소가 노란 점과 빨간 점으로 표시되어 있습니다.

기상관측소 명을 보려면 표시 위로 마우스를 이동하세요.

날씨 관측과 예보를 보려면 클릭하세요.

지도 변경 : 확대하려면 엑스 표시가 있는 녹색 버튼, 축소하려면 빼기 표시가 있는 녹색 버튼, 다음 페이지의 지도를 보려면 녹색 화살표를 클릭하세요.


METAR-TAF: